ADDS METAR Data INFO
IDs: Format: Raw Decoded Include TAF

Data at: 0853 UTC 22 Feb 2018

KFYG 220835Z AUTO 00000KT 2 1/2SM -RA BKN007 00/00 A3039 RMK AO2
KFYG 220815Z AUTO 00000KT 2SM -RA BKN007 00/00 A3040 RMK AO2
KFYG 220755Z AUTO 00000KT 1 1/4SM -RA BKN009 00/00 A3041 RMK AO2 P0001
KFYG 220735Z AUTO 36005KT 5SM BR OVC009 00/M01 A3042 RMK AO2
KFYG 220715Z AUTO 35006KT 7SM OVC009 00/M01 A3040 RMK AO2
KFYG 220655Z AUTO 35009KT 7SM OVC009 00/M01 A3039 RMK AO2
KFYG 220635Z AUTO 36006KT 7SM OVC009 00/M01 A3042 RMK AO2
KFYG 220615Z AUTO 34008KT 7SM OVC009 00/M01 A3042 RMK AO2
KFYG 220555Z AUTO 00000KT 8SM OVC009 00/M01 A3041 RMK AO2
KFYG 220535Z AUTO 00000KT 8SM OVC009 00/M01 A3044 RMK AO2
KFYG 220515Z AUTO 00000KT 8SM OVC009 00/M02 A3042 RMK AO2
KFYG 220455Z AUTO 00000KT 7SM OVC009 00/M02 A3041 RMK AO2
KFYG 220435Z AUTO 00000KT 8SM OVC009 00/M02 A3043 RMK AO2
KFYG 220415Z AUTO 00000KT 9SM OVC009 00/M02 A3043 RMK AO2
KFYG 220355Z AUTO 00000KT 9SM OVC009 00/M02 A3044 RMK AO2
KFYG 220035Z AUTO 00000KT 5SM BR OVC009 M02/M02 A3055 RMK AO2
KFYG 220015Z AUTO 00000KT 3SM BR OVC009 M02/M02 A3055 RMK AO2
KFYG 212355Z AUTO 00000KT 3SM BR OVC011 M02/M03 A3056 RMK AO2
KFYG 212335Z AUTO 00000KT 5SM BR OVC011 M02/M03 A3057 RMK AO2
KFYG 212315Z AUTO 00000KT 10SM OVC011 M02/M03 A3056 RMK AO2
KFYG 212255Z AUTO 00000KT 9SM OVC011 M02/M03 A3051 RMK AO2
KFYG 212235Z AUTO 00000KT 10SM OVC011 M02/M03 A3051 RMK AO2
KFYG 212215Z AUTO 00000KT 10SM OVC011 M02/M03 A3051 RMK AO2
KFYG 212155Z AUTO 00000KT 10SM OVC011 M02/M03 A3051 RMK AO2
KFYG 212135Z AUTO 00000KT 10SM OVC011 M02/M04 A3050 RMK AO2
KFYG 212115Z AUTO 00000KT 10SM OVC011 M02/M03 A3050 RMK AO2
KFYG 212055Z AUTO 00000KT 10SM OVC011 M02/M04 A3048 RMK AO2
KFYG 212035Z AUTO 04003KT 10SM OVC013 M02/M04 A3048 RMK AO2
KFYG 212015Z AUTO 04004KT 340V080 10SM OVC013 M02/M04 A3050 RMK AO2
KFYG 211955Z AUTO 00000KT 10SM OVC013 M02/M04 A3050 RMK AO2
KFYG 211935Z AUTO 00000KT 10SM OVC013 M02/M04 A3051 RMK AO2
KFYG 211915Z AUTO 00000KT 10SM OVC013 M02/M04 A3052 RMK AO2
KFYG 211855Z AUTO 02004KT 10SM OVC013 M02/M04 A3053 RMK AO2
KFYG 211835Z AUTO 36006KT 10SM OVC015 M02/M04 A3053 RMK AO2
KFYG 211815Z AUTO 36006KT 10SM OVC015 M02/M04 A3053 RMK AO2
KFYG 211755Z AUTO 01006KT 10SM BKN015 OVC019 M02/M04 A3054 RMK AO2
KFYG 211735Z AUTO 00000KT 10SM BKN015 OVC020 M02/M04 A3054 RMK AO2
KFYG 211715Z AUTO 03004KT 10SM BKN015 OVC020 M02/M04 A3055 RMK AO2
KFYG 211655Z AUTO 35003KT 10SM BKN015 M02/M05 A3055 RMK AO2
KFYG 211635Z AUTO 36008KT 10SM BKN015 M02/M05 A3053 RMK AO2
KFYG 211615Z AUTO 01004KT 10SM BKN015 M02/M05 A3053 RMK AO2
KFYG 211555Z AUTO 00000KT 10SM OVC015 M03/M05 A3053 RMK AO2
KFYG 211535Z AUTO 35006KT 10SM OVC015 M03/M05 A3052 RMK AO2
KFYG 211515Z AUTO 36005KT 10SM OVC017 M03/M05 A3053 RMK AO2
KFYG 211455Z AUTO 34009KT 10SM OVC017 M03/M05 A3054 RMK AO2
KFYG 211435Z AUTO 36008KT 10SM OVC017 M03/M05 A3053 RMK AO2
KFYG 211415Z AUTO 34008KT 10SM BKN017 M03/M05 A3053 RMK AO2
KFYG 211355Z AUTO 35008KT 10SM CLR M03/M05 A3051 RMK AO2
KFYG 211335Z AUTO 35007KT 10SM SCT019 M03/M05 A3051 RMK AO2
KFYG 211315Z AUTO 34012KT 10SM OVC019 M03/M05 A3050 RMK AO2
KFYG 211255Z AUTO 36008KT 10SM OVC017 M03/M05 A3048 RMK AO2
KFYG 211235Z AUTO 34009KT 10SM OVC017 M02/M04 A3048 RMK AO2
KFYG 211215Z AUTO 35009KT 10SM OVC017 M02/M04 A3046 RMK AO2
KFYG 210735Z AUTO 35007G16KT 2SM RA SCT010 SCT020 BKN028 00/M01 A3032 RMK AO2 P0016
KFYG 210715Z AUTO 33015G18KT 2 1/2SM RA BKN010 BKN070 00/00 A3031 RMK AO2 P0007
KFYG 210655Z AUTO 00000KT 6SM -RA SCT010 BKN014 BKN050 00/00 A3023 RMK AO2 P0007
KFYG 210635Z AUTO 36004KT 4SM -RA FEW011 SCT014 SCT019 00/00 A3024 RMK AO2 P0005
KFYG 210615Z AUTO 35005KT 5SM -RA FEW013 FEW017 FEW080 00/00 A3025 RMK AO2 P0001
KFYG 210555Z AUTO 34006KT 4SM RA SCT028 00/00 A3026 RMK AO2 P0020